Time;durP1;ratioP1;P1;durP2;ratioP2;P2;SDS_P1;SDS_P2;PMS_P1;PMS_P2;Temp;Humidity;BMP_temperature;BMP_pressure;BME280_temperature;BME280_humidity;BME280_pressure;Samples;Min_cycle;Max_cycle;Signal;HPM_P1;HPM_P2
2022/04/17 00:00:25;;;;;;;19.10;11.57;;;12.90;99.90;;;;;;6217970;23;20023;-89
2022/04/17 00:02:52;;;;;;;17.27;9.07;;;12.90;99.90;;;;;;6217815;23;20030;-89
2022/04/17 00:05:18;;;;;;;22.88;12.88;;;12.80;99.90;;;;;;6244330;23;20230;-89
2022/04/17 00:07:44;;;;;;;23.98;13.02;;;12.80;99.90;;;;;;6218091;23;20004;-89
2022/04/17 00:10:10;;;;;;;23.08;12.73;;;12.80;99.90;;;;;;6216409;23;20005;-88
2022/04/17 00:12:39;;;;;;;21.60;12.52;;;12.70;99.90;;;;;;6244279;23;20012;-89
2022/04/17 00:15:06;;;;;;;23.70;12.18;;;12.70;99.90;;;;;;6244329;23;20012;-88
2022/04/17 00:17:32;;;;;;;21.23;12.15;;;12.60;99.90;;;;;;6217529;23;20348;-88
2022/04/17 00:19:58;;;;;;;19.15;12.23;;;12.60;99.90;;;;;;6217751;23;20090;-88
2022/04/17 00:22:24;;;;;;;23.85;13.00;;;12.50;99.90;;;;;;6244388;23;20004;-88
2022/04/17 00:24:50;;;;;;;19.17;12.00;;;12.60;99.90;;;;;;6244681;23;19996;-88
2022/04/17 00:27:15;;;;;;;23.50;13.90;;;12.50;99.90;;;;;;6217996;23;20008;-89
2022/04/17 00:29:44;;;;;;;23.63;13.68;;;12.50;99.90;;;;;;6217835;23;20008;-88
2022/04/17 00:32:13;;;;;;;21.63;12.75;;;12.40;99.90;;;;;;6244111;23;20039;-88
2022/04/17 00:34:38;;;;;;;23.30;14.32;;;12.30;99.90;;;;;;6217160;23;20048;-88
2022/04/17 00:37:05;;;;;;;26.13;14.18;;;12.30;99.90;;;;;;6216500;23;20095;-88
2022/04/17 00:39:31;;;;;;;25.50;15.05;;;12.20;99.90;;;;;;6217615;23;20118;-88
2022/04/17 00:41:58;;;;;;;19.85;12.65;;;12.20;99.90;;;;;;6217115;23;20000;-88
2022/04/17 00:44:24;;;;;;;25.02;14.40;;;12.10;99.90;;;;;;6244129;23;20079;-89
2022/04/17 00:46:50;;;;;;;23.23;14.07;;;12.10;99.90;;;;;;6244225;23;20047;-88
2022/04/17 00:49:16;;;;;;;17.80;10.93;;;12.00;99.90;;;;;;6217128;23;20072;-87
2022/04/17 00:51:45;;;;;;;22.90;13.20;;;11.90;99.90;;;;;;6217575;23;20046;-88
2022/04/17 00:54:13;;;;;;;23.97;13.70;;;11.90;99.90;;;;;;6245764;23;20065;-88
2022/04/17 00:56:40;;;;;;;24.25;13.80;;;11.90;99.90;;;;;;6249224;23;20027;-87
2022/04/17 00:59:09;;;;;;;26.48;15.32;;;11.90;99.90;;;;;;6217592;23;20003;-88
2022/04/17 01:01:37;;;;;;;29.98;15.70;;;11.80;99.90;;;;;;6216998;23;20027;-90
2022/04/17 01:04:04;;;;;;;24.60;13.88;;;11.70;99.90;;;;;;6243771;23;20441;-88
2022/04/17 01:06:31;;;;;;;30.63;14.43;;;11.60;99.90;;;;;;6216579;23;20018;-89
2022/04/17 01:08:58;;;;;;;29.52;15.52;;;11.50;99.90;;;;;;6244978;23;20000;-89
2022/04/17 01:11:24;;;;;;;26.10;14.23;;;11.50;99.90;;;;;;6245936;23;20130;-89
2022/04/17 01:13:52;;;;;;;25.65;14.07;;;11.40;99.90;;;;;;6219963;23;20004;-89
2022/04/17 01:16:18;;;;;;;24.17;13.88;;;11.40;99.90;;;;;;6246760;23;20332;-89
2022/04/17 01:19:02;;;;;;;20.95;12.77;;;11.30;99.90;;;;;;6220580;23;20039;-89
2022/04/17 01:21:31;;;;;;;27.63;15.15;;;11.30;99.90;;;;;;6249236;23;20046;-89
2022/04/17 01:27:01;;;;;;;22.80;13.50;;;11.30;99.90;;;;;;6254459;23;20038;-89
2022/04/17 01:29:31;;;;;;;24.23;14.68;;;11.30;99.90;;;;;;6227185;23;20012;-89
2022/04/17 01:32:02;;;;;;;27.87;15.47;;;11.30;99.90;;;;;;6255007;23;20004;-90
2022/04/17 01:34:27;;;;;;;21.83;12.55;;;11.20;99.90;;;;;;6226472;23;20235;-89
2022/04/17 01:36:53;;;;;;;30.58;15.32;;;11.20;99.90;;;;;;6252590;23;20087;-88
2022/04/17 01:39:19;;;;;;;26.58;14.27;;;11.20;99.90;;;;;;6221613;23;20004;-89
2022/04/17 01:41:46;;;;;;;30.20;15.48;;;11.00;99.90;;;;;;6221732;23;20004;-89
2022/04/17 01:44:13;;;;;;;28.63;14.98;;;10.90;99.90;;;;;;6221065;23;20054;-89
2022/04/17 01:46:38;;;;;;;18.98;11.90;;;10.80;99.90;;;;;;6220538;23;20122;-89
2022/04/17 01:49:04;;;;;;;25.35;14.98;;;10.70;99.90;;;;;;6220206;23;20012;-89
2022/04/17 01:51:35;;;;;;;29.00;15.50;;;10.70;99.90;;;;;;6220252;23;20047;-89
2022/04/17 01:54:03;;;;;;;21.08;13.27;;;10.70;99.90;;;;;;6229842;23;20016;-88
2022/04/17 01:56:28;;;;;;;21.85;11.82;;;10.70;99.90;;;;;;6219565;23;20058;-89
2022/04/17 01:58:54;;;;;;;29.00;15.95;;;10.70;99.90;;;;;;6244788;23;19997;-89
2022/04/17 02:01:20;;;;;;;25.60;15.02;;;10.70;99.90;;;;;;6246281;23;20030;-89
2022/04/17 02:03:46;;;;;;;29.15;16.33;;;10.70;99.90;;;;;;6219622;23;20012;-89
2022/04/17 02:06:11;;;;;;;32.20;15.07;;;10.70;99.90;;;;;;6218564;23;20010;-89
2022/04/17 02:08:37;;;;;;;22.35;12.77;;;10.70;99.90;;;;;;6246057;23;20490;-89
2022/04/17 02:11:03;;;;;;;33.78;17.85;;;10.60;99.90;;;;;;6218856;23;20027;-89
2022/04/17 02:13:29;;;;;;;27.85;15.35;;;10.60;99.90;;;;;;6219517;23;20024;-89
2022/04/17 02:15:55;;;;;;;28.23;15.32;;;10.50;99.90;;;;;;6246693;23;20000;-89
2022/04/17 02:18:21;;;;;;;23.73;14.48;;;10.50;99.90;;;;;;6246147;23;20067;-88
2022/04/17 02:20:47;;;;;;;28.25;15.70;;;10.40;99.90;;;;;;6244650;23;20091;-88
2022/04/17 02:23:14;;;;;;;30.52;16.95;;;10.40;99.90;;;;;;6245268;23;20073;-87
2022/04/17 02:25:40;;;;;;;29.90;16.13;;;10.40;99.90;;;;;;6218234;23;20011;-88
2022/04/17 02:28:07;;;;;;;29.83;16.52;;;10.30;99.90;;;;;;6245643;23;20024;-88
2022/04/17 02:30:33;;;;;;;30.50;16.52;;;10.30;99.90;;;;;;6218275;23;20038;-88
2022/04/17 02:32:58;;;;;;;29.00;15.88;;;10.30;99.90;;;;;;6218799;23;20031;-88
2022/04/17 02:35:24;;;;;;;28.95;15.98;;;10.30;99.90;;;;;;6218569;23;20019;-88
2022/04/17 02:37:49;;;;;;;33.80;15.65;;;10.30;99.90;;;;;;6245583;23;20000;-88
2022/04/17 02:40:15;;;;;;;30.65;17.23;;;10.20;99.90;;;;;;6217560;23;20091;-89
2022/04/17 02:42:41;;;;;;;26.90;15.82;;;10.20;99.90;;;;;;6245796;23;20012;-89
2022/04/17 02:45:07;;;;;;;35.55;17.58;;;10.20;99.90;;;;;;6222910;23;20439;-88
2022/04/17 02:47:53;;;;;;;32.58;16.95;;;10.20;99.90;;;;;;6218399;23;20019;-88
2022/04/17 02:50:20;;;;;;;27.83;14.75;;;10.20;99.90;;;;;;6243383;23;20008;-88
2022/04/17 02:52:46;;;;;;;28.90;17.38;;;10.10;99.90;;;;;;6217247;23;20023;-88
2022/04/17 02:55:12;;;;;;;32.38;17.17;;;10.10;99.90;;;;;;6216623;23;20012;-88
2022/04/17 02:57:38;;;;;;;31.80;17.42;;;10.10;99.90;;;;;;6216459;23;20011;-88
2022/04/17 03:00:06;;;;;;;31.73;17.23;;;10.10;99.90;;;;;;6243176;23;20000;-88
2022/04/17 03:05:39;;;;;;;31.23;17.00;;;10.00;99.90;;;;;;6245405;23;20082;-88
2022/04/17 03:08:16;;;;;;;30.90;15.75;;;10.00;99.90;;;;;;6245144;23;20512;-88
2022/04/17 03:10:48;;;;;;;23.65;13.43;;;10.00;99.90;;;;;;6245428;23;20003;-88
2022/04/17 03:13:15;;;;;;;31.42;16.73;;;10.00;99.90;;;;;;6218556;23;20047;-88
2022/04/17 03:15:41;;;;;;;29.42;16.50;;;10.00;99.90;;;;;;6229154;23;20004;-88
2022/04/17 03:18:11;;;;;;;24.52;13.93;;;10.00;99.90;;;;;;6222097;23;20051;-88
2022/04/17 03:20:37;;;;;;;33.13;17.80;;;9.90;99.90;;;;;;6245256;23;19997;-87
2022/04/17 03:23:04;;;;;;;27.00;14.73;;;9.90;99.90;;;;;;6244943;23;20008;-90
2022/04/17 03:25:30;;;;;;;29.33;16.00;;;9.90;99.90;;;;;;6244681;23;20007;-86
2022/04/17 03:27:57;;;;;;;29.85;16.70;;;9.90;99.90;;;;;;6218530;23;20008;-90
2022/04/17 03:30:23;;;;;;;30.35;17.10;;;9.90;99.90;;;;;;6218290;23;20518;-89
2022/04/17 03:32:52;;;;;;;28.20;16.75;;;9.80;99.90;;;;;;6244717;23;20003;-89
2022/04/17 03:35:18;;;;;;;30.13;16.67;;;9.90;99.90;;;;;;6217525;23;20014;-88
2022/04/17 03:37:45;;;;;;;28.40;16.52;;;9.80;99.90;;;;;;6217646;23;20007;-88
2022/04/17 03:40:12;;;;;;;29.83;16.05;;;9.80;99.90;;;;;;6244540;23;20003;-88
2022/04/17 03:42:39;;;;;;;28.88;15.82;;;9.80;99.90;;;;;;6244530;23;20000;-88
2022/04/17 03:45:06;;;;;;;23.40;14.98;;;9.70;99.90;;;;;;6217584;23;20019;-88
2022/04/17 03:47:33;;;;;;;28.45;16.15;;;9.70;99.90;;;;;;6218139;23;20007;-88
2022/04/17 03:49:59;;;;;;;32.13;16.50;;;9.70;99.90;;;;;;6217630;23;20094;-89
2022/04/17 03:52:25;;;;;;;32.97;17.17;;;9.70;99.90;;;;;;6218808;23;20135;-89
2022/04/17 03:54:51;;;;;;;30.67;16.55;;;9.80;99.90;;;;;;6244829;23;20016;-89
2022/04/17 03:57:19;;;;;;;37.60;18.65;;;9.70;99.90;;;;;;6219213;23;20027;-89
2022/04/17 03:59:44;;;;;;;31.25;16.02;;;9.60;99.90;;;;;;6225513;23;20083;-89
2022/04/17 04:02:10;;;;;;;35.28;16.50;;;9.50;99.90;;;;;;6223659;23;20062;-89
2022/04/17 04:04:37;;;;;;;35.72;17.15;;;9.40;99.90;;;;;;6247953;23;20004;-89
2022/04/17 04:07:02;;;;;;;32.90;16.92;;;9.30;99.90;;;;;;6217922;23;20004;-89
2022/04/17 04:09:28;;;;;;;33.30;17.10;;;9.30;99.90;;;;;;6215813;23;20071;-89
2022/04/17 04:11:54;;;;;;;33.33;16.80;;;9.20;99.90;;;;;;6244990;23;20012;-88
2022/04/17 04:14:22;;;;;;;32.35;16.10;;;9.20;99.90;;;;;;6217850;23;20008;-89
2022/04/17 04:16:48;;;;;;;30.23;16.02;;;9.20;99.90;;;;;;6217424;23;20008;-89
2022/04/17 04:19:14;;;;;;;30.58;18.08;;;9.20;99.90;;;;;;6218090;23;20004;-88
2022/04/17 04:21:48;;;;;;;31.02;16.55;;;9.20;99.90;;;;;;6244334;23;20008;-89
2022/04/17 04:24:15;;;;;;;32.33;17.92;;;9.10;99.90;;;;;;6217778;23;20012;-88
2022/04/17 04:26:44;;;;;;;29.67;15.75;;;9.10;99.90;;;;;;6217621;23;20008;-88
2022/04/17 04:29:10;;;;;;;30.58;16.85;;;9.10;99.90;;;;;;6217442;23;20087;-88
2022/04/17 04:31:36;;;;;;;31.98;16.98;;;9.10;99.90;;;;;;6217465;23;20008;-88
2022/04/17 04:34:02;;;;;;;32.20;16.77;;;9.10;99.90;;;;;;6217038;23;20007;-88
2022/04/17 04:36:28;;;;;;;28.50;16.92;;;9.10;99.90;;;;;;6217498;23;20081;-87
2022/04/17 04:38:54;;;;;;;26.42;15.68;;;9.00;99.90;;;;;;6243820;23;20004;-88
2022/04/17 04:41:20;;;;;;;28.27;15.55;;;9.00;99.90;;;;;;6243019;23;20009;-88
2022/04/17 04:43:45;;;;;;;33.13;16.73;;;9.00;99.90;;;;;;6217209;23;20007;-87
2022/04/17 04:46:11;;;;;;;30.75;16.73;;;9.00;99.90;;;;;;6218185;23;20016;-87
2022/04/17 04:51:25;;;;;;;27.13;15.38;;;8.90;99.90;;;;;;6245303;23;20047;-87
2022/04/17 04:53:51;;;;;;;32.83;16.52;;;8.80;99.90;;;;;;6226774;23;20475;-88
2022/04/17 04:56:17;;;;;;;33.40;16.88;;;8.80;99.90;;;;;;6219824;23;20008;-87
2022/04/17 04:58:43;;;;;;;33.33;16.55;;;8.80;99.90;;;;;;6220117;23;20095;-88
2022/04/17 05:01:09;;;;;;;31.55;17.00;;;8.80;99.90;;;;;;6227028;23;20012;-86
2022/04/17 05:03:35;;;;;;;28.20;15.05;;;8.70;99.90;;;;;;6225502;23;20004;-89
2022/04/17 05:06:01;;;;;;;31.10;17.63;;;8.70;99.90;;;;;;6220742;23;20004;-88
2022/04/17 05:08:27;;;;;;;31.98;17.77;;;8.70;99.90;;;;;;6218633;22;20034;-87
2022/04/17 05:10:53;;;;;;;33.13;17.35;;;8.60;99.90;;;;;;6245187;23;20000;-88
2022/04/17 05:13:19;;;;;;;30.50;16.63;;;8.60;99.90;;;;;;6244393;23;20003;-88
2022/04/17 05:15:45;;;;;;;31.98;16.90;;;8.60;99.90;;;;;;6244615;23;20075;-88
2022/04/17 05:18:10;;;;;;;26.85;14.68;;;8.60;99.90;;;;;;6217107;23;20015;-89
2022/04/17 05:20:36;;;;;;;30.65;17.15;;;8.50;99.90;;;;;;6217674;23;20034;-87
2022/04/17 05:23:19;;;;;;;30.17;17.08;;;8.50;99.90;;;;;;6244035;23;20058;-87
2022/04/17 05:25:49;;;;;;;34.40;17.13;;;8.50;99.90;;;;;;6244698;23;20000;-88
2022/04/17 05:28:15;;;;;;;30.58;17.35;;;8.50;99.90;;;;;;6219326;23;20367;-88
2022/04/17 05:30:41;;;;;;;35.65;18.13;;;8.40;99.90;;;;;;6219904;23;20077;-87
2022/04/17 05:33:07;;;;;;;33.47;17.50;;;8.40;99.90;;;;;;6219241;23;20027;-87
2022/04/17 05:35:33;;;;;;;41.00;17.75;;;8.40;99.90;;;;;;6247658;23;20036;-88
2022/04/17 05:37:59;;;;;;;31.17;16.88;;;8.30;99.90;;;;;;6219070;23;20004;-88
2022/04/17 05:40:25;;;;;;;33.83;18.38;;;8.30;99.90;;;;;;6218293;23;20392;-88
2022/04/17 05:42:50;;;;;;;32.17;17.80;;;8.30;99.90;;;;;;6247202;23;20171;-88
2022/04/17 05:45:17;;;;;;;31.98;17.15;;;8.20;99.90;;;;;;6219978;23;20114;-88
2022/04/17 05:47:43;;;;;;;30.05;17.08;;;8.20;99.90;;;;;;6245877;23;20007;-88
2022/04/17 05:50:09;;;;;;;34.72;17.42;;;8.20;99.90;;;;;;6219223;23;20008;-87
2022/04/17 05:52:35;;;;;;;34.08;17.25;;;8.10;99.90;;;;;;6219133;23;20119;-87
2022/04/17 05:55:00;;;;;;;34.17;17.77;;;8.10;99.90;;;;;;6218766;23;20466;-87
2022/04/17 05:57:26;;;;;;;33.90;17.75;;;8.10;99.90;;;;;;6245583;23;20004;-89
2022/04/17 05:59:52;;;;;;;35.92;17.60;;;8.10;99.90;;;;;;6245975;23;20007;-90
2022/04/17 06:02:27;;;;;;;33.25;18.67;;;8.10;99.90;;;;;;6218135;23;19996;-89
2022/04/17 06:04:53;;;;;;;34.28;17.40;;;8.10;99.90;;;;;;6218898;23;20015;-90
2022/04/17 06:07:28;;;;;;;31.17;16.83;;;8.10;99.90;;;;;;6244856;23;19996;-90
2022/04/17 06:09:53;;;;;;;32.08;17.95;;;8.20;99.90;;;;;;6245758;23;20004;-89
2022/04/17 06:12:19;;;;;;;32.30;17.48;;;8.20;99.90;;;;;;6216545;23;20070;-89
2022/04/17 06:14:45;;;;;;;37.88;18.83;;;8.20;99.90;;;;;;6216532;23;20028;-89
2022/04/17 06:17:14;;;;;;;30.42;17.25;;;8.30;99.90;;;;;;6217831;23;20091;-90
2022/04/17 06:19:39;;;;;;;35.92;18.98;;;8.30;99.90;;;;;;6218535;23;19996;-89
2022/04/17 06:22:06;;;;;;;37.13;17.83;;;8.30;99.90;;;;;;6218262;23;20004;-89
2022/04/17 06:24:32;;;;;;;32.70;17.88;;;8.30;99.90;;;;;;6218843;23;20371;-90
2022/04/17 06:26:58;;;;;;;39.83;20.35;;;8.30;99.90;;;;;;6245480;23;20018;-89
2022/04/17 06:29:23;;;;;;;36.10;19.00;;;8.40;99.90;;;;;;6243769;23;20008;-92
2022/04/17 06:31:49;;;;;;;36.45;18.33;;;8.40;99.90;;;;;;6216874;23;20040;-88
2022/04/17 06:34:15;;;;;;;32.22;17.73;;;8.40;99.90;;;;;;6217924;23;20011;-89
2022/04/17 06:36:41;;;;;;;34.70;18.05;;;8.40;99.90;;;;;;6250810;23;20004;-90
2022/04/17 06:39:07;;;;;;;31.40;17.30;;;8.40;99.90;;;;;;6230567;23;20117;-89
2022/04/17 06:41:33;;;;;;;32.28;17.08;;;8.40;99.90;;;;;;6254619;23;20000;-90
2022/04/17 06:43:58;;;;;;;39.45;19.67;;;8.40;99.90;;;;;;6225185;23;20004;-89
2022/04/17 06:46:24;;;;;;;32.00;17.00;;;8.40;99.90;;;;;;6222032;23;20106;-90
2022/04/17 06:48:49;;;;;;;33.85;17.27;;;8.40;99.90;;;;;;6246842;23;20040;-90
2022/04/17 06:51:19;;;;;;;27.35;16.27;;;8.40;99.90;;;;;;6250429;23;20012;-89
2022/04/17 06:53:44;;;;;;;32.20;17.33;;;8.50;99.90;;;;;;6250726;23;20026;-88
2022/04/17 06:56:12;;;;;;;32.92;17.55;;;8.50;99.90;;;;;;6221463;23;20091;-89
2022/04/17 06:58:38;;;;;;;29.92;16.83;;;8.40;99.90;;;;;;6218749;23;20031;-89
2022/04/17 07:01:04;;;;;;;35.67;17.58;;;8.50;99.90;;;;;;6218898;23;20008;-90
2022/04/17 07:03:29;;;;;;;35.72;18.35;;;8.50;99.90;;;;;;6218668;23;20011;-89
2022/04/17 07:05:55;;;;;;;35.33;18.73;;;8.50;99.90;;;;;;6245249;23;20075;-88
2022/04/17 07:08:21;;;;;;;38.55;21.00;;;8.50;99.90;;;;;;6245090;23;20066;-89
2022/04/17 07:10:48;;;;;;;36.47;19.63;;;8.60;99.90;;;;;;6225208;23;20502;-89
2022/04/17 07:13:18;;;;;;;42.65;21.38;;;8.60;99.90;;;;;;6247378;23;20003;-89
2022/04/17 07:15:44;;;;;;;38.25;20.83;;;8.70;99.90;;;;;;6245795;23;20007;-89
2022/04/17 07:18:10;;;;;;;40.38;21.23;;;8.70;99.90;;;;;;6218783;23;20008;-89
2022/04/17 07:20:35;;;;;;;39.58;20.70;;;8.80;99.90;;;;;;6218437;23;20008;-89
2022/04/17 07:23:01;;;;;;;43.10;23.10;;;8.90;99.90;;;;;;6218519;23;20462;-89
2022/04/17 07:25:27;;;;;;;44.55;22.10;;;8.90;99.90;;;;;;6218033;23;20317;-89
2022/04/17 07:27:56;;;;;;;40.03;20.23;;;9.00;99.90;;;;;;6245274;23;20004;-89
2022/04/17 07:30:24;;;;;;;48.78;23.30;;;9.10;99.90;;;;;;6245328;23;20004;-89
2022/04/17 07:32:51;;;;;;;49.17;23.23;;;9.20;99.90;;;;;;6218490;23;20019;-89
2022/04/17 07:35:18;;;;;;;42.72;21.83;;;9.20;99.90;;;;;;6247001;23;20008;-91
2022/04/17 07:37:52;;;;;;;39.75;22.52;;;9.30;99.90;;;;;;6249325;23;20015;-90
2022/04/17 07:40:25;;;;;;;42.05;22.02;;;9.40;99.90;;;;;;6247014;23;19997;-90
2022/04/17 07:42:52;;;;;;;40.78;21.40;;;9.50;99.90;;;;;;6248571;23;20056;-91
2022/04/17 07:45:19;;;;;;;44.80;21.83;;;9.60;99.90;;;;;;6221094;23;20054;-91
2022/04/17 07:47:45;;;;;;;43.22;23.55;;;9.60;99.90;;;;;;6223460;23;20023;-91
2022/04/17 07:50:14;;;;;;;45.05;21.55;;;9.70;99.90;;;;;;6250601;23;20000;-91
2022/04/17 07:52:41;;;;;;;31.95;16.85;;;9.80;99.90;;;;;;6220261;23;20020;-90
2022/04/17 07:55:09;;;;;;;41.88;21.75;;;9.90;99.90;;;;;;6243612;23;20012;-90
2022/04/17 08:00:21;;;;;;;43.78;23.15;;;10.00;99.90;;;;;;6246010;23;20070;-92
2022/04/17 08:03:09;;;;;;;44.95;23.25;;;10.10;99.90;;;;;;6219173;23;20126;-90
2022/04/17 08:05:39;;;;;;;40.72;20.92;;;10.20;99.90;;;;;;6216662;23;20206;-90
2022/04/17 08:08:06;;;;;;;42.08;22.38;;;10.30;99.90;;;;;;6219221;22;20499;-90
2022/04/17 08:10:33;;;;;;;37.63;20.90;;;10.40;99.90;;;;;;6246284;23;20007;-90
2022/04/17 08:12:59;;;;;;;40.88;21.25;;;10.50;99.90;;;;;;6246261;23;20087;-91
2022/04/17 08:15:24;;;;;;;44.25;22.83;;;10.60;99.90;;;;;;6219810;23;20000;-91
2022/04/17 08:17:50;;;;;;;38.08;20.85;;;10.70;99.90;;;;;;6218985;23;20430;-90
2022/04/17 08:20:16;;;;;;;42.40;22.35;;;10.80;99.90;;;;;;6219425;23;20011;-90
2022/04/17 08:22:41;;;;;;;41.10;22.38;;;10.90;99.90;;;;;;6246599;23;20135;-91
2022/04/17 08:25:07;;;;;;;42.50;21.55;;;10.90;99.90;;;;;;6219382;23;20118;-91
2022/04/17 08:27:33;;;;;;;46.85;22.15;;;11.10;99.90;;;;;;6220325;23;20035;-90
2022/04/17 08:30:01;;;;;;;41.28;21.95;;;11.10;99.90;;;;;;6223630;23;20000;-90
2022/04/17 08:32:27;;;;;;;43.47;21.73;;;11.20;99.90;;;;;;6231749;23;20035;-91
2022/04/17 08:34:53;;;;;;;42.28;21.98;;;11.30;99.90;;;;;;6234979;23;20023;-92
2022/04/17 08:37:18;;;;;;;40.42;22.85;;;11.40;99.90;;;;;;6225620;23;20008;-91
2022/04/17 08:39:44;;;;;;;43.00;21.83;;;11.50;99.90;;;;;;6234330;23;20015;-92
2022/04/17 08:42:11;;;;;;;43.42;23.67;;;11.70;99.90;;;;;;6226764;23;20012;-91
2022/04/17 08:44:37;;;;;;;43.13;23.38;;;11.80;99.90;;;;;;6221700;23;20004;-92
2022/04/17 08:47:03;;;;;;;44.85;23.83;;;11.90;99.90;;;;;;6219958;23;20269;-90
2022/04/17 08:49:29;;;;;;;45.58;24.25;;;12.00;99.90;;;;;;6218453;23;20087;-91
2022/04/17 08:51:56;;;;;;;43.55;23.98;;;12.10;99.90;;;;;;6219067;23;20008;-92
2022/04/17 08:54:25;;;;;;;41.65;22.80;;;12.20;99.90;;;;;;6219408;23;20074;-93
2022/04/17 08:56:52;;;;;;;41.13;23.15;;;12.30;99.90;;;;;;6219080;23;20083;-93
2022/04/17 08:59:23;;;;;;;41.95;23.13;;;12.50;99.90;;;;;;6219066;23;20012;-93
2022/04/17 09:01:49;;;;;;;37.10;21.33;;;12.80;99.90;;;;;;6219686;23;20091;-93
2022/04/17 09:04:15;;;;;;;38.15;21.60;;;12.90;99.90;;;;;;6250046;23;20004;-93
2022/04/17 09:06:41;;;;;;;38.75;21.70;;;13.20;99.90;;;;;;6223841;23;20054;-93
2022/04/17 09:09:07;;;;;;;36.38;20.92;;;13.30;99.90;;;;;;6221968;23;20004;-94
2022/04/17 09:11:34;;;;;;;38.33;21.00;;;13.50;99.90;;;;;;6219959;23;20024;-93
2022/04/17 09:14:02;;;;;;;38.05;20.83;;;13.70;99.90;;;;;;6229790;23;20001;-93
2022/04/17 09:16:38;;;;;;;42.67;22.25;;;14.00;99.90;;;;;;6262321;23;20003;-93
2022/04/17 09:19:16;;;;;;;38.25;20.38;;;14.20;99.90;;;;;;6231410;23;20035;-91
2022/04/17 09:21:42;;;;;;;37.83;20.08;;;14.50;99.90;;;;;;6254716;23;20004;-93
2022/04/17 09:24:19;;;;;;;37.35;20.10;;;14.60;99.90;;;;;;6249632;23;20008;-92
2022/04/17 09:26:55;;;;;;;37.50;19.50;;;14.80;99.90;;;;;;6221156;23;20062;-94
2022/04/17 09:29:23;;;;;;;32.92;18.73;;;15.00;99.90;;;;;;6221223;23;20051;-93
2022/04/17 09:31:59;;;;;;;33.35;19.20;;;15.10;98.70;;;;;;6226756;23;20024;-94
2022/04/17 09:34:27;;;;;;;27.95;15.50;;;15.20;96.90;;;;;;6252998;23;20003;-94
2022/04/17 09:37:00;;;;;;;32.10;18.50;;;15.30;95.80;;;;;;6228830;23;20387;-95
2022/04/17 09:39:33;;;;;;;36.28;16.65;;;15.50;94.10;;;;;;6234142;23;20002;-89
2022/04/17 09:42:01;;;;;;;31.70;16.25;;;15.60;93.50;;;;;;6254525;23;20000;-92
2022/04/17 09:44:47;;;;;;;26.48;14.85;;;15.70;92.30;;;;;;6248649;23;20031;-92
2022/04/17 09:47:27;;;;;;;32.05;16.08;;;15.90;91.30;;;;;;6247866;23;20000;-91
2022/04/17 09:50:00;;;;;;;27.40;14.90;;;16.10;90.10;;;;;;6221746;23;20092;-92
2022/04/17 09:52:52;;;;;;;26.15;14.20;;;16.30;88.50;;;;;;6221736;23;20070;-91
2022/04/17 09:55:27;;;;;;;27.52;16.25;;;16.40;85.90;;;;;;6214158;23;20016;-92
2022/04/17 09:57:57;;;;;;;27.30;14.95;;;16.50;84.90;;;;;;6247006;23;20349;-89
2022/04/17 10:00:23;;;;;;;30.70;13.32;;;16.60;83.40;;;;;;6220301;23;20004;-90
2022/04/17 10:02:49;;;;;;;27.83;14.82;;;16.80;83.30;;;;;;6246820;23;20015;-90
2022/04/17 10:05:17;;;;;;;29.65;17.50;;;16.80;82.20;;;;;;6247013;23;20067;-91
2022/04/17 10:07:48;;;;;;;28.95;16.33;;;16.90;81.60;;;;;;6220078;23;20002;-92
2022/04/17 10:10:15;;;;;;;27.02;15.63;;;16.90;81.30;;;;;;6222911;23;20024;-90
2022/04/17 10:12:46;;;;;;;31.33;16.23;;;16.90;81.20;;;;;;6220265;23;20008;-90
2022/04/17 10:15:12;;;;;;;28.92;15.00;;;17.10;81.70;;;;;;6220305;23;20008;-89
2022/04/17 10:17:40;;;;;;;27.55;15.68;;;17.20;81.50;;;;;;6251337;23;20000;-89
2022/04/17 10:20:08;;;;;;;25.98;15.55;;;17.40;80.90;;;;;;6254667;23;20066;-88
2022/04/17 10:22:36;;;;;;;27.95;15.48;;;17.50;79.90;;;;;;6220687;23;20012;-89
2022/04/17 10:25:04;;;;;;;30.23;15.98;;;17.50;79.10;;;;;;6219737;23;20030;-89
2022/04/17 10:27:36;;;;;;;29.10;15.88;;;17.70;78.90;;;;;;6219408;23;20098;-89
2022/04/17 10:30:07;;;;;;;30.17;15.38;;;17.80;78.00;;;;;;6218248;23;20000;-88
2022/04/17 10:32:36;;;;;;;;;;;17.80;76.60;;;;;;6217507;23;20505;-89
2022/04/17 10:35:27;;;;;;;31.00;16.95;;;17.90;76.40;;;;;;6219861;23;19904;-90
2022/04/17 10:38:22;;;;;;;28.92;15.57;;;18.00;76.30;;;;;;6246408;23;20000;-88
2022/04/17 10:41:07;;;;;;;31.52;16.65;;;18.10;75.70;;;;;;6218791;23;20046;-87
2022/04/17 10:43:53;;;;;;;33.17;16.83;;;18.10;74.80;;;;;;6218224;23;20035;-88
2022/04/17 10:46:20;;;;;;;29.15;15.18;;;18.20;75.20;;;;;;6217633;23;20008;-90
2022/04/17 10:49:01;;;;;;;29.83;16.63;;;18.40;74.80;;;;;;6218060;23;20012;-89
2022/04/17 10:51:35;;;;;;;28.85;14.52;;;18.50;73.80;;;;;;6218188;23;20083;-89
2022/04/17 10:54:11;;;;;;;31.48;15.15;;;18.50;73.50;;;;;;6219397;23;20440;-89
2022/04/17 10:56:39;;;;;;;30.23;15.25;;;18.40;73.00;;;;;;6245162;23;20004;-89
2022/04/17 10:59:19;;;;;;;30.48;14.50;;;18.40;72.90;;;;;;6217884;23;20095;-88
2022/04/17 11:01:44;;;;;;;31.60;17.05;;;18.40;73.00;;;;;;6217849;23;20007;-89
2022/04/17 11:04:59;;;;;;;24.63;12.77;;;18.30;73.00;;;;;;6217976;23;20004;-90
2022/04/17 11:07:29;;;;;;;28.42;14.23;;;18.50;73.10;;;;;;6160874;23;20019;-88
2022/04/17 11:10:18;;;;;;;29.85;14.93;;;18.70;72.70;;;;;;6217193;23;20087;-87
2022/04/17 11:12:51;;;;;;;29.00;13.60;;;18.80;72.40;;;;;;6217420;23;20027;-87
2022/04/17 11:15:17;;;;;;;26.73;12.93;;;18.80;71.60;;;;;;6244712;23;20020;-89
2022/04/17 11:17:44;;;;;;;28.00;13.88;;;19.00;71.60;;;;;;6220130;23;20004;-88
2022/04/17 11:20:11;;;;;;;27.15;13.80;;;19.10;71.20;;;;;;6219401;23;20020;-89
2022/04/17 11:22:38;;;;;;;27.55;14.23;;;19.20;70.30;;;;;;6219786;23;20343;-89
2022/04/17 11:25:06;;;;;;;27.25;13.02;;;19.30;69.70;;;;;;6219709;23;20008;-92
2022/04/17 11:27:31;;;;;;;24.70;13.00;;;19.30;69.50;;;;;;6218628;23;20475;-90
2022/04/17 11:29:58;;;;;;;25.10;14.85;;;19.40;69.00;;;;;;6217814;23;20000;-90
2022/04/17 11:32:25;;;;;;;24.75;13.52;;;19.50;68.10;;;;;;6245967;23;20099;-90
2022/04/17 11:34:54;;;;;;;22.58;12.20;;;19.50;68.00;;;;;;6219374;23;20008;-90
2022/04/17 11:37:25;;;;;;;27.92;13.73;;;19.60;68.00;;;;;;6228976;23;20008;-90
2022/04/17 11:39:51;;;;;;;25.75;13.30;;;19.60;67.10;;;;;;6227998;23;20000;-91
2022/04/17 11:42:18;;;;;;;23.67;13.60;;;19.50;66.50;;;;;;6219963;23;20008;-89
2022/04/17 11:44:45;;;;;;;24.00;12.18;;;19.50;67.20;;;;;;6220405;23;20012;-90
2022/04/17 11:47:18;;;;;;;23.77;13.63;;;19.50;67.00;;;;;;6220507;23;20019;-91
2022/04/17 11:49:45;;;;;;;20.65;12.15;;;19.60;66.80;;;;;;6223758;23;20042;-91
2022/04/17 11:52:16;;;;;;;25.20;13.32;;;19.80;66.70;;;;;;6253350;23;20020;-91
2022/04/17 11:54:43;;;;;;;22.55;13.27;;;19.90;66.10;;;;;;6233666;23;20038;-90
2022/04/17 11:57:10;;;;;;;22.95;13.07;;;19.90;65.30;;;;;;6233923;23;20031;-90
2022/04/17 11:59:50;;;;;;;23.95;12.10;;;19.90;65.00;;;;;;6229324;23;20000;-92
2022/04/17 12:02:24;;;;;;;25.17;13.60;;;20.00;64.60;;;;;;6233082;23;20058;-91
2022/04/17 12:04:55;;;;;;;21.75;13.38;;;20.00;64.60;;;;;;6230351;23;20243;-90
2022/04/17 12:07:23;;;;;;;22.83;14.00;;;20.00;64.60;;;;;;6225031;23;20032;-92
2022/04/17 12:09:49;;;;;;;23.70;13.32;;;20.10;64.80;;;;;;6221133;23;20020;-91
2022/04/17 12:12:19;;;;;;;24.38;14.05;;;20.20;64.80;;;;;;6221008;23;20012;-90
2022/04/17 12:14:52;;;;;;;24.90;14.82;;;20.20;64.20;;;;;;6221436;23;20016;-93
2022/04/17 12:17:21;;;;;;;26.77;14.82;;;20.10;63.60;;;;;;6221735;23;20100;-93
2022/04/17 12:19:51;;;;;;;22.92;14.50;;;20.10;63.90;;;;;;6220408;23;20042;-92
2022/04/17 12:22:18;;;;;;;24.73;14.32;;;20.10;64.10;;;;;;6221003;23;20000;-93
2022/04/17 12:24:44;;;;;;;25.35;13.90;;;20.20;64.40;;;;;;6223669;23;20032;-92
2022/04/17 12:27:13;;;;;;;22.63;13.00;;;20.30;64.40;;;;;;6221597;23;20004;-92
2022/04/17 12:29:41;;;;;;;26.40;15.00;;;20.40;64.60;;;;;;6221525;23;20423;-94
2022/04/17 12:32:17;;;;;;;28.02;14.57;;;20.60;64.40;;;;;;6219547;23;20020;-92
2022/04/17 12:34:47;;;;;;;20.80;11.65;;;20.70;63.70;;;;;;6248137;23;20376;-95
2022/04/17 12:37:35;;;;;;;17.77;10.70;;;21.00;63.30;;;;;;6247557;23;20062;-94
2022/04/17 12:40:13;;;;;;;19.50;10.80;;;21.00;61.60;;;;;;6218924;23;20023;-93
2022/04/17 12:42:39;;;;;;;22.70;11.73;;;20.90;61.10;;;;;;6220794;23;20455;-95
2022/04/17 12:45:07;;;;;;;16.73;9.93;;;20.90;61.40;;;;;;6219674;23;20027;-92
2022/04/17 12:47:36;;;;;;;18.73;11.43;;;20.80;60.90;;;;;;6222338;23;20015;-93